createdAt,value
2023-04-04T00:02:38.230Z,52.1
2023-04-04T00:07:56.520Z,51.7
2023-04-04T00:13:15.115Z,51.6
2023-04-04T00:18:33.387Z,50.9
2023-04-04T00:23:52.120Z,52.2
2023-04-04T00:29:10.270Z,52.4
2023-04-04T00:34:28.728Z,52.3
2023-04-04T00:39:47.017Z,52.4
2023-04-04T00:45:05.157Z,51.8
2023-04-04T00:50:23.248Z,51.7
2023-04-04T00:55:41.775Z,52.1
2023-04-04T01:01:00.124Z,52.5
2023-04-04T01:06:18.604Z,51.7
2023-04-04T01:11:36.531Z,52.6
2023-04-04T01:16:54.993Z,51.7
2023-04-04T01:22:12.871Z,52
2023-04-04T01:27:31.333Z,52.3
2023-04-04T01:32:49.618Z,52.7
2023-04-04T01:38:07.894Z,52
2023-04-04T01:43:26.012Z,52.1
2023-04-04T01:48:44.181Z,51.8
2023-04-04T01:54:02.237Z,52
2023-04-04T01:59:20.591Z,52.4
2023-04-04T02:04:38.785Z,52.4
2023-04-04T02:09:57.094Z,52
2023-04-04T02:15:15.217Z,52.6
2023-04-04T02:20:33.678Z,52.2
2023-04-04T02:25:51.746Z,51.9
2023-04-04T02:31:10.196Z,52.7
2023-04-04T02:36:28.983Z,52.1
2023-04-04T02:41:47.437Z,51.6
2023-04-04T02:47:05.801Z,52.6
2023-04-04T02:52:23.896Z,52.6
2023-04-04T02:57:42.173Z,51.9
2023-04-04T03:03:00.769Z,52.8
2023-04-04T03:08:18.879Z,52.9
2023-04-04T03:13:36.947Z,52.4
2023-04-04T03:18:55.428Z,52.8
2023-04-04T03:24:13.974Z,52.5
2023-04-04T03:29:32.327Z,52.9
2023-04-04T03:34:50.621Z,52.4
2023-04-04T03:40:08.513Z,52.2
2023-04-04T03:45:26.797Z,53.2
2023-04-04T03:50:44.868Z,52.2
2023-04-04T03:56:03.242Z,52.7
2023-04-04T04:01:21.713Z,51.7
2023-04-04T04:06:40.239Z,51.7
2023-04-04T04:11:58.389Z,51.9
2023-04-04T04:17:16.669Z,52.5
2023-04-04T04:22:34.964Z,51.8
2023-04-04T04:27:53.288Z,52
2023-04-04T04:33:11.547Z,51.7
2023-04-04T04:38:30.035Z,51.1
2023-04-04T04:43:48.691Z,49.8
2023-04-04T04:49:06.718Z,51
2023-04-04T04:54:25.016Z,52.3
2023-04-04T04:59:43.320Z,51.8
2023-04-04T05:05:01.386Z,51.5
2023-04-04T05:10:19.667Z,51.2
2023-04-04T05:15:38.173Z,51.1
2023-04-04T05:20:56.298Z,51.7
2023-04-04T05:26:14.833Z,51.7
2023-04-04T05:31:33.469Z,51.7
2023-04-04T05:36:51.760Z,51.4
2023-04-04T05:42:10.081Z,51.7
2023-04-04T05:47:28.337Z,50.9
2023-04-04T05:52:46.408Z,50.9
2023-04-04T05:58:04.761Z,50.6
2023-04-04T06:03:23.516Z,51.4
2023-04-04T06:08:54.356Z,50.9
2023-04-04T06:14:15.449Z,51.3
2023-04-04T06:19:33.728Z,50.8
2023-04-04T06:24:51.971Z,50.9
2023-04-04T06:30:12.648Z,50.7
2023-04-04T06:35:30.587Z,50.9
2023-04-04T06:40:48.869Z,50.1
2023-04-04T06:46:06.962Z,50.5
2023-04-04T06:51:25.566Z,50.6
2023-04-04T06:56:44.224Z,50.4
2023-04-04T07:02:02.465Z,50.1
2023-04-04T07:07:20.967Z,50.5
2023-04-04T07:12:39.256Z,49.6
2023-04-04T07:17:57.597Z,50.2
2023-04-04T07:23:15.994Z,49.8
2023-04-04T07:28:34.476Z,50
2023-04-04T07:33:52.792Z,49.3
2023-04-04T07:39:11.079Z,49.4
2023-04-04T07:44:29.498Z,49.9
2023-04-04T07:49:47.766Z,49.2
2023-04-04T07:55:06.000Z,49.6
2023-04-04T08:00:24.116Z,49.9
2023-04-04T08:05:42.722Z,49.2
2023-04-04T08:11:01.099Z,49.2
2023-04-04T08:16:19.655Z,48.8
2023-04-04T08:21:38.224Z,48.6
2023-04-04T08:27:06.204Z,49.1
2023-04-04T08:32:24.280Z,49.3
2023-04-04T08:37:42.584Z,48.8
2023-04-04T08:43:00.686Z,48.6
2023-04-04T08:48:19.171Z,48.7
2023-04-04T08:53:37.454Z,48.6
2023-04-04T08:58:55.703Z,48.4
2023-04-04T09:04:13.628Z,49.2
2023-04-04T09:09:31.901Z,48.5
2023-04-04T09:14:50.595Z,48.9
2023-04-04T09:20:12.111Z,48.9
2023-04-04T09:25:30.191Z,48.3
2023-04-04T09:30:48.833Z,48.3
2023-04-04T09:36:07.424Z,49
2023-04-04T09:41:25.423Z,48.9
2023-04-04T09:46:44.048Z,49
2023-04-04T09:52:02.325Z,48.7
2023-04-04T09:57:20.822Z,48
2023-04-04T10:02:38.937Z,48
2023-04-04T10:08:00.052Z,48.7
2023-04-04T10:13:18.636Z,48.5
2023-04-04T10:18:37.110Z,48
2023-04-04T10:23:55.631Z,48
2023-04-04T10:29:13.951Z,48.1
2023-04-04T10:34:32.268Z,48
2023-04-04T10:39:50.341Z,47.9
2023-04-04T10:45:22.398Z,48.3
2023-04-04T10:50:40.604Z,47.8
2023-04-04T10:55:59.177Z,47.7
2023-04-04T11:01:17.516Z,48.5
2023-04-04T11:06:35.904Z,48.4
2023-04-04T11:11:55.738Z,48.2
2023-04-04T11:17:14.023Z,47.8
2023-04-04T11:22:32.331Z,47.6
2023-04-04T11:27:50.461Z,47.3
2023-04-04T11:33:09.076Z,48.3
2023-04-04T11:38:27.442Z,48.2
2023-04-04T11:43:45.701Z,47.5
2023-04-04T11:49:03.963Z,47.4
2023-04-04T11:54:22.111Z,47.2
2023-04-04T11:59:40.444Z,47.2
2023-04-04T12:04:59.044Z,47.1
2023-04-04T12:10:17.707Z,47.2
2023-04-04T12:15:20.377Z,47
2023-04-04T12:20:38.516Z,47.7
2023-04-04T12:25:56.885Z,47.9
2023-04-04T12:31:15.512Z,47.7
2023-04-04T12:36:33.421Z,48
2023-04-04T12:41:51.580Z,48
2023-04-04T12:47:10.042Z,47.2
2023-04-04T12:52:28.662Z,48
2023-04-04T12:57:47.042Z,47.9
2023-04-04T13:03:05.298Z,47
2023-04-04T13:08:23.494Z,47
2023-04-04T13:13:42.005Z,47.5
2023-04-04T13:19:00.085Z,46.8
2023-04-04T13:24:18.520Z,47.2
2023-04-04T13:29:36.837Z,46.8
2023-04-04T13:34:55.226Z,47.5
2023-04-04T13:40:13.314Z,46.9
2023-04-04T13:45:31.740Z,46.8
2023-04-04T13:50:50.173Z,47.2
2023-04-04T13:56:18.911Z,47
2023-04-04T14:01:37.344Z,47.6
2023-04-04T14:06:55.662Z,46.7
2023-04-04T14:12:14.855Z,46.9
2023-04-04T14:17:32.982Z,47.5
2023-04-04T14:22:51.440Z,47.1
2023-04-04T14:28:09.770Z,47.6
2023-04-04T14:33:27.979Z,46.8
2023-04-04T14:38:46.045Z,47.1
2023-04-04T14:44:04.361Z,46.8
2023-04-04T14:49:22.849Z,46.6
2023-04-04T14:54:41.317Z,46.8
2023-04-04T14:59:59.200Z,46.8
2023-04-04T15:05:17.933Z,46.8
2023-04-04T15:10:36.279Z,47.3
2023-04-04T15:15:55.729Z,47.2
2023-04-04T15:21:14.259Z,47
2023-04-04T15:26:32.693Z,46.8
2023-04-04T15:31:51.090Z,46.6
2023-04-04T15:37:09.475Z,47.1
2023-04-04T15:42:27.593Z,46.6
2023-04-04T15:47:47.149Z,47.1
2023-04-04T15:53:05.744Z,46.6
2023-04-04T15:58:24.241Z,46.8
2023-04-04T16:03:43.139Z,46.3
2023-04-04T16:09:01.881Z,46.8
2023-04-04T16:14:20.274Z,46.4
2023-04-04T16:19:38.360Z,46.4
2023-04-04T16:24:56.752Z,46.4
2023-04-04T16:30:14.639Z,46.6
2023-04-04T16:35:33.015Z,47
2023-04-04T16:40:51.417Z,46.5
2023-04-04T16:46:10.011Z,46.3
2023-04-04T16:51:28.121Z,46.6
2023-04-04T16:56:46.449Z,46.5
2023-04-04T17:02:07.828Z,46.7
2023-04-04T17:07:26.311Z,47
2023-04-04T17:12:44.676Z,46.9
2023-04-04T17:18:02.912Z,46.5
2023-04-04T17:23:21.234Z,46.7
2023-04-04T17:28:39.835Z,46.1
2023-04-04T17:33:57.919Z,46.5
2023-04-04T17:39:16.006Z,46.3
2023-04-04T17:44:34.531Z,46.2
2023-04-04T17:49:52.796Z,43.4
2023-04-04T17:55:11.019Z,44.8
2023-04-04T18:00:30.811Z,45.3
2023-04-04T18:05:49.132Z,45.2
2023-04-04T18:11:07.932Z,46.1
2023-04-04T18:16:26.193Z,46.1
2023-04-04T18:21:46.999Z,45.5
2023-04-04T18:27:05.531Z,45.8
2023-04-04T18:32:23.522Z,45.5
2023-04-04T18:37:41.730Z,46.3
2023-04-04T18:43:00.032Z,46.2
2023-04-04T18:48:18.945Z,46.1
2023-04-04T18:53:36.997Z,46.3
2023-04-04T18:58:55.456Z,46.4
2023-04-04T19:04:13.820Z,45.7
2023-04-04T19:09:32.288Z,46.3
2023-04-04T19:14:50.821Z,46.3
2023-04-04T19:20:08.892Z,45.7
2023-04-04T19:25:27.630Z,45.6
2023-04-04T19:30:45.949Z,46.3
2023-04-04T19:36:04.542Z,45.8
2023-04-04T19:41:23.208Z,46.1
2023-04-04T19:46:42.000Z,46.4
2023-04-04T19:52:00.622Z,47
2023-04-04T19:57:19.076Z,46.8
2023-04-04T20:02:37.850Z,46.9
2023-04-04T20:07:56.091Z,47.4
2023-04-04T20:13:14.161Z,46.8
2023-04-04T20:18:32.318Z,47.4
2023-04-04T20:23:50.705Z,47
2023-04-04T20:29:08.958Z,47.5
2023-04-04T20:34:27.449Z,47.1
2023-04-04T20:39:45.616Z,47.3
2023-04-04T20:45:04.086Z,47.4
2023-04-04T20:50:22.358Z,46.7
2023-04-04T20:55:42.199Z,47.4
2023-04-04T21:01:01.698Z,47.1
2023-04-04T21:06:19.982Z,46.8
2023-04-04T21:11:38.545Z,47.1
2023-04-04T21:16:56.840Z,46.4
2023-04-04T21:22:15.296Z,46.7
2023-04-04T21:27:33.908Z,47.1
2023-04-04T21:32:52.489Z,46.7
2023-04-04T21:38:11.045Z,47.5
2023-04-04T21:43:29.988Z,46.8
2023-04-04T21:48:48.258Z,47.2
2023-04-04T21:54:06.750Z,47.1
2023-04-04T21:59:24.902Z,47.9
2023-04-04T22:04:43.324Z,48
2023-04-04T22:10:01.593Z,47.7
2023-04-04T22:15:20.122Z,48.2
2023-04-04T22:20:38.536Z,48.1
2023-04-04T22:25:57.177Z,47.5
2023-04-04T22:31:15.767Z,47.7
2023-04-04T22:36:33.850Z,47.9
2023-04-04T22:41:52.143Z,48.2
2023-04-04T22:47:10.702Z,47.4
2023-04-04T22:52:29.237Z,48.2
2023-04-04T22:57:47.551Z,47.3
2023-04-04T23:03:06.014Z,47.3
2023-04-04T23:08:24.117Z,47.1
2023-04-04T23:13:42.383Z,47.6
2023-04-04T23:19:00.707Z,47.6
2023-04-04T23:24:19.211Z,47.6
2023-04-04T23:29:37.474Z,47.6
2023-04-04T23:34:55.989Z,47
2023-04-04T23:40:14.284Z,47
2023-04-04T23:45:32.746Z,47.9
2023-04-04T23:50:50.864Z,48.2
2023-04-04T23:56:09.335Z,47.8
